Time;durP1;ratioP1;P1;durP2;ratioP2;P2;SDS_P1;SDS_P2;PMS_P1;PMS_P2;Temp;Humidity;BMP_temperature;BMP_pressure;BME280_temperature;BME280_humidity;BME280_pressure;Samples;Min_cycle;Max_cycle;Signal;HPM_P1;HPM_P2
2023/01/17 00:01:28;;;;;;;20.13;13.88;;;;;;;0.87;84.78;95557.78;5050958;28;20056;-62
2023/01/17 00:12:10;;;;;;;23.23;13.23;;;;;;;0.66;87.00;95548.66;5050734;28;20052;-63
2023/01/17 00:14:37;;;;;;;25.08;11.55;;;;;;;0.61;87.00;95546.13;5050656;28;20076;-66
2023/01/17 00:17:04;;;;;;;29.98;14.15;;;;;;;0.47;87.93;95545.47;5050248;28;20056;-63
2023/01/17 01:34:25;;;;;;;19.02;10.82;;;;;;;0.17;88.80;95509.88;5053574;28;20111;-64
2023/01/17 01:36:52;;;;;;;21.30;11.05;;;;;;;0.20;88.43;95514.13;5053101;28;20060;-65
2023/01/17 01:39:21;;;;;;;26.45;12.13;;;;;;;0.22;89.53;95502.97;5053108;28;20082;-63
2023/01/17 01:41:48;;;;;;;21.70;11.15;;;;;;;0.22;88.93;95496.94;5053091;28;20542;-64
2023/01/17 01:44:42;;;;;;;17.20;11.48;;;;;;;0.15;89.12;95493.59;5052945;28;20573;-67
2023/01/17 01:47:11;;;;;;;24.98;10.10;;;;;;;0.19;88.97;95495.28;5053012;28;20056;-65
2023/01/17 01:49:38;;;;;;;16.80;9.70;;;;;;;0.20;88.70;95494.41;5052920;28;20486;-64
2023/01/17 01:52:08;;;;;;;14.60;8.35;;;;;;;0.19;88.16;95491.84;5053005;28;20459;-66
2023/01/17 01:54:41;;;;;;;12.43;9.05;;;;;;;0.21;88.01;95498.66;5052767;28;20084;-66
2023/01/17 01:57:12;;;;;;;18.13;9.63;;;;;;;0.19;88.59;95500.44;5052766;28;20045;-64
2023/01/17 01:59:44;;;;;;;18.05;12.02;;;;;;;0.21;88.19;95500.41;5052845;28;20073;-64
2023/01/17 02:02:11;;;;;;;25.38;12.45;;;;;;;0.22;88.01;95495.25;5052726;28;20060;-65
2023/01/17 02:04:39;;;;;;;20.52;12.18;;;;;;;0.26;88.54;95490.88;5052632;28;20080;-64
2023/01/17 02:07:12;;;;;;;14.25;9.70;;;;;;;0.28;88.84;95496.00;5052607;28;20052;-66
2023/01/17 02:09:41;;;;;;;16.08;10.82;;;;;;;0.30;88.59;95484.00;5052634;28;20060;-63
2023/01/17 02:12:10;;;;;;;18.20;10.32;;;;;;;0.32;88.92;95495.94;5052598;28;20136;-63
2023/01/17 02:14:37;;;;;;;18.10;10.15;;;;;;;0.33;88.31;95492.50;5052499;28;20486;-63
2023/01/17 02:17:12;;;;;;;20.55;10.65;;;;;;;0.37;88.21;95493.31;5052364;28;20498;-64
2023/01/17 02:20:30;;;;;;;14.40;10.07;;;;;;;0.25;88.57;95490.03;5052496;28;20049;-65
2023/01/17 02:23:28;;;;;;;21.92;12.68;;;;;;;0.37;91.05;95485.59;5052593;28;20045;-64
2023/01/17 02:26:28;;;;;;;20.13;11.75;;;;;;;0.45;91.36;95483.75;5052336;28;20089;-63
2023/01/17 02:29:16;;;;;;;19.30;9.60;;;;;;;0.48;90.52;95490.59;5049944;28;20473;-65
2023/01/17 02:31:51;;;;;;;35.88;15.50;;;;;;;0.54;90.59;95499.94;5052423;28;20041;-64
2023/01/17 02:34:23;;;;;;;26.30;12.52;;;;;;;0.56;90.03;95504.19;5052457;28;20064;-65
2023/01/17 02:36:56;;;;;;;39.67;18.63;;;;;;;0.60;89.91;95494.69;5052091;28;20452;-64
2023/01/17 02:39:28;;;;;;;31.30;15.07;;;;;;;0.66;90.39;95506.63;5052478;28;20052;-63
2023/01/17 02:42:02;;;;;;;31.38;13.65;;;;;;;0.73;89.66;95496.19;5051227;28;20045;-63
2023/01/17 02:44:29;;;;;;;26.23;12.30;;;;;;;0.77;89.32;95493.56;5051758;28;20077;-67
2023/01/17 02:46:58;;;;;;;17.02;9.95;;;;;;;0.70;89.26;95487.66;5052040;28;20128;-65
2023/01/17 02:49:31;;;;;;;20.73;10.88;;;;;;;0.70;89.41;95493.69;5051972;28;20045;-65
2023/01/17 02:52:22;;;;;;;17.85;12.27;;;;;;;0.72;89.67;95494.50;5051877;28;20105;-66
2023/01/17 02:55:07;;;;;;;23.85;13.63;;;;;;;0.81;90.21;95487.50;5051855;28;20131;-65
2023/01/17 02:57:52;;;;;;;23.63;14.18;;;;;;;0.88;90.57;95494.25;5051701;28;20052;-64
2023/01/17 03:00:26;;;;;;;21.27;12.73;;;;;;;0.86;89.99;95488.28;5051814;28;20056;-67
2023/01/17 03:03:02;;;;;;;16.05;10.50;;;;;;;0.86;90.03;95498.56;5051884;28;20171;-63
2023/01/17 03:05:36;;;;;;;22.33;11.68;;;;;;;0.92;89.67;95502.75;5051837;28;20114;-63
2023/01/17 03:08:04;;;;;;;21.33;11.88;;;;;;;0.95;89.42;95495.84;5051698;28;20055;-64
2023/01/17 03:10:35;;;;;;;22.65;11.90;;;;;;;1.01;89.52;95497.47;5051728;28;20087;-62
2023/01/17 03:13:03;;;;;;;23.77;13.02;;;;;;;0.98;89.58;95498.38;5051624;28;20084;-67
2023/01/17 03:15:30;;;;;;;27.60;13.43;;;;;;;0.99;90.19;95482.03;5051613;28;20076;-64
2023/01/17 03:18:03;;;;;;;26.63;14.32;;;;;;;0.94;90.87;95460.69;5051574;28;20244;-62
2023/01/17 03:20:31;;;;;;;26.98;13.82;;;;;;;0.97;91.16;95449.47;5051800;28;20484;-64
2023/01/17 03:22:58;;;;;;;28.05;14.73;;;;;;;1.00;91.68;95445.09;5051472;28;20523;-65
2023/01/17 03:25:26;;;;;;;22.85;12.52;;;;;;;1.08;91.17;95447.53;5051448;28;20448;-63
2023/01/17 03:27:53;;;;;;;19.98;12.45;;;;;;;1.13;90.73;95432.88;5051501;28;20053;-63
2023/01/17 03:30:21;;;;;;;20.70;10.70;;;;;;;1.17;90.48;95433.63;5051604;28;20102;-65
2023/01/17 03:32:48;;;;;;;15.55;10.65;;;;;;;1.11;90.99;95437.19;5051484;28;20401;-67
2023/01/17 03:35:17;;;;;;;21.98;11.52;;;;;;;1.12;90.84;95425.16;5051536;28;20045;-65
2023/01/17 03:37:45;;;;;;;16.70;11.38;;;;;;;1.16;90.82;95421.66;5051232;28;20060;-64
2023/01/17 03:40:12;;;;;;;20.58;12.32;;;;;;;1.20;90.82;95422.44;5051307;28;20056;-66
2023/01/17 03:42:40;;;;;;;19.85;12.70;;;;;;;1.28;91.16;95430.00;5051180;28;20045;-65
2023/01/17 03:45:07;;;;;;;16.95;10.75;;;;;;;1.28;90.64;95437.75;5050919;28;20380;-64
2023/01/17 03:47:35;;;;;;;19.38;11.60;;;;;;;1.29;89.96;95437.72;5051310;28;20102;-64
2023/01/17 03:50:03;;;;;;;19.25;10.90;;;;;;;1.30;90.03;95442.00;5050974;28;20045;-63
2023/01/17 03:52:31;;;;;;;15.30;10.75;;;;;;;1.30;89.34;95423.09;5050946;28;20041;-65
2023/01/17 03:54:59;;;;;;;17.70;10.25;;;;;;;1.26;89.36;95414.56;5051064;28;20053;-66
2023/01/17 03:57:26;;;;;;;19.92;10.60;;;;;;;1.20;88.87;95399.25;5050776;28;20049;-66
2023/01/17 03:59:54;;;;;;;19.17;12.07;;;;;;;1.17;89.28;95395.00;5050915;28;20451;-67
2023/01/17 04:02:23;;;;;;;20.42;12.70;;;;;;;1.18;89.32;95401.00;5050931;28;20131;-66
2023/01/17 04:04:50;;;;;;;15.43;10.55;;;;;;;1.15;89.28;95411.38;5050756;28;20045;-66
2023/01/17 04:07:17;;;;;;;20.42;13.52;;;;;;;1.03;89.93;95427.91;5050799;28;20053;-66
2023/01/17 04:09:45;;;;;;;25.23;13.68;;;;;;;1.03;90.26;95422.75;5050738;28;20076;-64
2023/01/17 04:12:12;;;;;;;27.13;14.57;;;;;;;1.00;92.31;95411.59;5050862;28;20041;-64
2023/01/17 04:14:40;;;;;;;24.23;14.73;;;;;;;1.07;92.45;95411.50;5050874;28;20505;-65
2023/01/17 04:17:10;;;;;;;20.75;12.68;;;;;;;1.03;92.09;95407.28;5050615;28;20053;-63
2023/01/17 04:19:37;;;;;;;23.00;13.73;;;;;;;1.05;92.12;95396.06;5050679;28;20380;-65
2023/01/17 04:22:04;;;;;;;24.08;13.43;;;;;;;1.03;92.66;95390.13;5050564;28;20479;-64
2023/01/17 04:24:31;;;;;;;30.05;14.35;;;;;;;1.09;92.89;95381.41;5050546;28;20041;-65
2023/01/17 04:27:00;;;;;;;27.02;13.63;;;;;;;1.18;92.86;95381.25;5050588;28;20049;-63
2023/01/17 04:29:27;;;;;;;20.67;12.77;;;;;;;1.15;92.45;95377.88;5050418;28;20087;-63
2023/01/17 04:31:54;;;;;;;24.10;13.65;;;;;;;1.13;92.84;95371.03;5050494;28;20059;-66
2023/01/17 04:34:22;;;;;;;46.88;31.42;;;;;;;1.19;93.50;95375.22;5050544;28;20057;-65
2023/01/17 04:36:49;;;;;;;32.05;21.55;;;;;;;1.31;93.71;95368.09;5050184;28;20498;-66
2023/01/17 04:39:16;;;;;;;26.42;15.73;;;;;;;1.26;94.23;95376.78;5050309;28;20555;-67
2023/01/17 04:41:44;;;;;;;22.58;12.18;;;;;;;1.29;94.27;95365.56;5050228;28;20045;-64
2023/01/17 04:44:12;;;;;;;27.30;12.90;;;;;;;1.24;94.46;95378.53;5050250;28;20505;-67
2023/01/17 04:46:40;;;;;;;25.08;12.13;;;;;;;1.24;94.20;95369.97;5050148;28;20077;-65
2023/01/17 04:49:07;;;;;;;32.30;15.68;;;;;;;1.27;94.76;95369.91;5050104;28;20045;-64
2023/01/17 04:51:34;;;;;;;40.88;20.90;;;;;;;1.45;96.78;95381.59;5050379;28;20049;-64
2023/01/17 04:54:01;;;;;;;32.58;17.50;;;;;;;1.63;98.55;95361.44;5050136;28;20052;-66
2023/01/17 04:56:29;;;;;;;53.08;21.40;;;;;;;1.86;100.00;95360.06;5050361;28;20051;-64
2023/01/17 04:58:57;;;;;;;52.42;23.88;;;;;;;2.08;100.00;95364.75;5050386;28;20086;-66
2023/01/17 05:01:26;;;;;;;51.95;25.58;;;;;;;2.42;100.00;95369.13;5050007;28;20087;-65
2023/01/17 05:03:53;;;;;;;60.88;25.90;;;;;;;2.61;100.00;95366.94;5051543;28;20117;-65
2023/01/17 05:06:20;;;;;;;61.17;27.20;;;;;;;2.85;100.00;95379.25;5056688;28;20105;-66
2023/01/17 05:08:49;;;;;;;50.75;26.02;;;;;;;3.14;100.00;95369.88;5056615;28;20447;-67
2023/01/17 05:11:16;;;;;;;51.70;25.48;;;;;;;3.46;100.00;95377.63;5056573;28;20049;-64
2023/01/17 05:13:44;;;;;;;42.65;23.30;;;;;;;3.65;100.00;95377.94;5056637;28;20047;-63
2023/01/17 05:16:11;;;;;;;45.88;23.27;;;;;;;3.79;100.00;95380.09;5056578;28;20046;-64
2023/01/17 05:18:40;;;;;;;38.78;20.55;;;;;;;3.98;100.00;95389.91;5056458;28;20049;-65
2023/01/17 05:21:09;;;;;;;43.95;20.90;;;;;;;4.11;100.00;95385.22;5056359;28;20060;-66
2023/01/17 05:23:39;;;;;;;37.20;20.93;;;;;;;4.24;100.00;95383.09;5056319;28;20087;-66
2023/01/17 05:26:06;;;;;;;37.75;18.33;;;;;;;4.28;100.00;95384.69;5056444;28;20102;-68
2023/01/17 05:28:35;;;;;;;42.00;18.45;;;;;;;4.33;100.00;95381.97;5056243;28;20083;-66
2023/01/17 05:31:03;;;;;;;29.35;17.75;;;;;;;4.35;100.00;95386.19;5056345;28;20080;-66
2023/01/17 05:33:30;;;;;;;31.65;17.35;;;;;;;4.37;100.00;95375.78;5056329;28;20056;-65
2023/01/17 05:35:59;;;;;;;32.33;17.13;;;;;;;4.48;100.00;95376.28;5056263;28;20093;-65
2023/01/17 05:38:26;;;;;;;25.48;16.15;;;;;;;4.57;100.00;95380.31;5056250;28;20101;-64
2023/01/17 05:40:53;;;;;;;31.63;14.77;;;;;;;4.58;100.00;95386.34;5056377;28;20071;-63
2023/01/17 05:43:21;;;;;;;37.42;17.17;;;;;;;4.77;100.00;95399.53;5056156;28;20041;-66
2023/01/17 05:45:49;;;;;;;35.65;20.92;;;;;;;4.85;100.00;95397.53;5055932;28;20041;-63
2023/01/17 05:48:17;;;;;;;54.17;29.58;;;;;;;4.96;100.00;95391.97;5056338;27;20053;-63
2023/01/17 05:50:45;;;;;;;28.88;16.33;;;;;;;5.09;100.00;95389.00;5056058;28;20376;-63
2023/01/17 05:53:22;;;;;;;37.13;19.15;;;;;;;5.18;100.00;95389.50;5056184;28;20113;-64
2023/01/17 05:55:50;;;;;;;44.45;27.10;;;;;;;5.24;100.00;95392.78;5055897;28;20056;-67
2023/01/17 05:58:18;;;;;;;25.13;16.25;;;;;;;5.37;100.00;95395.78;5055778;28;20426;-67
2023/01/17 06:00:46;;;;;;;29.73;15.05;;;;;;;5.52;100.00;95403.03;5055884;28;20045;-65
2023/01/17 06:03:14;;;;;;;27.77;12.20;;;;;;;5.80;100.00;95406.34;5056025;28;20539;-64
2023/01/17 06:05:41;;;;;;;20.60;11.40;;;;;;;5.98;100.00;95406.56;5055848;28;20401;-63
2023/01/17 06:08:10;;;;;;;21.13;10.98;;;;;;;6.20;100.00;95401.41;5055793;28;20140;-64
2023/01/17 06:10:38;;;;;;;17.67;10.30;;;;;;;6.29;100.00;95408.84;5055768;28;20128;-65
2023/01/17 06:13:08;;;;;;;21.10;9.68;;;;;;;6.34;100.00;95407.81;5055850;28;20128;-65
2023/01/17 06:15:36;;;;;;;16.92;10.30;;;;;;;6.38;98.56;95406.81;5053468;28;20521;-67
2023/01/17 06:18:07;;;;;;;18.23;9.13;;;;;;;6.44;97.81;95410.00;5052489;28;20053;-66
2023/01/17 06:20:35;;;;;;;18.73;10.00;;;;;;;6.43;96.76;95417.84;5052635;28;20132;-66
2023/01/17 06:23:03;;;;;;;14.25;8.93;;;;;;;6.48;97.04;95412.50;5052399;28;20108;-66
2023/01/17 06:25:31;;;;;;;17.50;8.30;;;;;;;6.62;96.16;95423.16;5052279;28;20049;-66
2023/01/17 06:28:02;;;;;;;18.38;8.98;;;;;;;6.65;95.28;95419.63;5052306;28;20053;-64
2023/01/17 06:30:29;;;;;;;15.30;8.32;;;;;;;6.60;94.50;95421.53;5052205;28;20439;-65
2023/01/17 06:32:56;;;;;;;17.67;9.57;;;;;;;6.52;93.56;95412.31;5052175;28;20070;-67
2023/01/17 06:35:24;;;;;;;19.77;10.00;;;;;;;6.68;95.01;95388.28;5052239;28;20124;-66
2023/01/17 06:37:54;;;;;;;14.43;7.25;;;;;;;6.76;94.96;95382.78;5052023;28;20140;-63
2023/01/17 06:40:22;;;;;;;13.20;7.63;;;;;;;6.92;93.90;95385.56;5052158;28;20132;-64
2023/01/17 06:42:49;;;;;;;22.90;10.27;;;;;;;7.02;92.60;95399.06;5052287;28;20080;-67
2023/01/17 06:45:18;;;;;;;25.90;15.65;;;;;;;7.12;92.58;95402.94;5052011;28;20052;-65
2023/01/17 06:47:46;;;;;;;18.63;10.15;;;;;;;7.27;90.54;95411.88;5052002;28;20491;-66
2023/01/17 06:50:15;;;;;;;19.27;6.07;;;;;;;7.74;89.83;95424.63;5052126;28;20084;-64
2023/01/17 06:52:43;;;;;;;12.68;7.32;;;;;;;8.38;86.52;95419.13;5051957;28;20097;-67
2023/01/17 06:55:10;;;;;;;16.08;8.27;;;;;;;9.39;83.03;95414.25;5051940;28;20044;-67
2023/01/17 06:57:37;;;;;;;17.63;10.50;;;;;;;10.96;76.16;95425.91;5051940;28;20136;-67
2023/01/17 07:00:06;;;;;;;19.30;10.93;;;;;;;13.02;69.67;95423.13;5051985;28;20478;-67
2023/01/17 07:02:34;;;;;;;9.73;5.18;;;;;;;14.49;59.63;95411.47;5051988;28;20049;-65
2023/01/17 07:05:01;;;;;;;6.32;3.83;;;;;;;14.14;59.00;95404.28;5051811;28;20136;-65
2023/01/17 07:07:28;;;;;;;5.10;3.35;;;;;;;13.89;59.00;95406.88;5051813;28;20098;-68
2023/01/17 07:09:55;;;;;;;8.13;3.80;;;;;;;14.20;58.77;95424.91;5051671;28;20049;-66
2023/01/17 07:12:22;;;;;;;5.85;4.07;;;;;;;15.41;55.69;95438.22;5051665;28;20045;-65
2023/01/17 07:14:50;;;;;;;9.20;4.90;;;;;;;15.71;53.07;95436.03;5051658;28;20447;-67
2023/01/17 07:17:17;;;;;;;8.57;3.85;;;;;;;16.12;52.62;95442.56;5051637;28;20051;-65
2023/01/17 07:19:46;;;;;;;9.40;4.03;;;;;;;15.83;51.93;95445.63;5051580;28;20045;-64
2023/01/17 07:22:13;;;;;;;10.80;4.20;;;;;;;14.77;54.48;95453.38;5051512;28;20080;-65
2023/01/17 07:24:40;;;;;;;8.95;4.30;;;;;;;13.67;57.45;95467.09;5051458;28;20551;-66
2023/01/17 07:27:08;;;;;;;10.02;4.53;;;;;;;12.43;61.73;95469.69;5051239;28;20045;-67
2023/01/17 07:29:35;;;;;;;12.50;4.53;;;;;;;12.11;63.31;95464.69;5051439;28;20049;-66
2023/01/17 07:32:03;;;;;;;9.82;5.20;;;;;;;11.86;64.83;95453.06;5051175;28;20044;-66
2023/01/17 07:34:30;;;;;;;10.35;4.93;;;;;;;11.81;65.57;95462.94;5051373;28;20442;-66
2023/01/17 07:36:59;;;;;;;14.98;5.13;;;;;;;12.63;64.05;95444.84;5051313;28;20127;-66
2023/01/17 07:39:26;;;;;;;6.93;3.65;;;;;;;14.24;58.62;95436.06;5051294;28;20060;-67
2023/01/17 07:41:53;;;;;;;9.70;3.80;;;;;;;15.27;54.32;95428.75;5051264;28;20041;-67
2023/01/17 07:44:20;;;;;;;8.30;3.72;;;;;;;15.81;52.53;95438.81;5050935;28;20048;-67
2023/01/17 07:46:47;;;;;;;11.48;3.88;;;;;;;16.63;50.98;95450.94;5051052;28;20037;-64
2023/01/17 07:49:15;;;;;;;15.65;6.38;;;;;;;16.71;51.52;95442.41;5051074;28;20052;-64
2023/01/17 07:51:42;;;;;;;10.15;5.03;;;;;;;16.75;52.52;95449.13;5050961;28;20049;-63
2023/01/17 07:54:13;;;;;;;17.73;8.55;;;;;;;16.58;50.39;95447.00;5051124;28;20068;-64
2023/01/17 07:56:44;;;;;;;18.00;9.85;;;;;;;16.35;51.45;95442.56;5051129;28;20055;-66
2023/01/17 07:59:11;;;;;;;13.45;7.47;;;;;;;15.87;52.63;95425.16;5050863;28;20053;-66
2023/01/17 08:01:38;;;;;;;8.68;4.18;;;;;;;15.66;52.32;95433.75;5050916;28;20049;-67
2023/01/17 08:04:06;;;;;;;12.85;5.90;;;;;;;15.56;52.55;95433.59;5050977;28;20047;-66
2023/01/17 08:06:33;;;;;;;9.35;4.00;;;;;;;14.81;53.48;95432.97;5051045;28;20490;-63
2023/01/17 08:09:00;;;;;;;9.60;5.97;;;;;;;14.05;57.05;95434.72;5050983;28;20140;-66
2023/01/17 08:11:29;;;;;;;12.65;6.72;;;;;;;13.69;59.08;95436.31;5050810;28;20045;-63
2023/01/17 08:13:58;;;;;;;10.82;6.50;;;;;;;13.90;59.21;95420.84;5050497;28;20049;-63
2023/01/17 08:16:28;;;;;;;8.55;6.10;;;;;;;14.10;57.68;95422.09;5050601;28;20045;-67
2023/01/17 08:18:58;;;;;;;12.55;6.07;;;;;;;14.18;57.62;95418.91;5050492;28;20053;-64
2023/01/17 08:21:25;;;;;;;26.08;14.88;;;;;;;14.12;57.59;95419.34;5050450;28;20053;-64
2023/01/17 08:23:53;;;;;;;10.00;5.63;;;;;;;13.77;58.34;95424.34;5050830;28;20056;-64
2023/01/17 08:26:22;;;;;;;16.85;6.70;;;;;;;13.96;58.97;95428.31;5050592;28;20048;-66
2023/01/17 08:28:58;;;;;;;9.50;5.50;;;;;;;14.89;56.91;95427.97;5050644;28;20052;-62
2023/01/17 08:31:27;;;;;;;10.15;5.55;;;;;;;15.74;54.16;95434.00;5050357;28;20051;-67
2023/01/17 08:33:58;;;;;;;12.98;6.00;;;;;;;16.35;52.67;95439.09;5050294;28;20098;-65
2023/01/17 08:36:30;;;;;;;9.85;5.45;;;;;;;16.50;51.59;95440.50;5050256;28;20045;-67
2023/01/17 08:38:58;;;;;;;9.20;5.68;;;;;;;16.51;51.28;95458.03;5049464;28;20049;-63
2023/01/17 08:41:27;;;;;;;11.80;5.63;;;;;;;16.36;51.07;95456.59;5050331;28;20049;-64
2023/01/17 08:43:56;;;;;;;20.63;15.27;;;;;;;15.85;52.79;95454.28;5050066;28;20088;-65
2023/01/17 08:46:24;;;;;;;15.75;9.52;;;;;;;15.60;53.73;95445.59;5049996;28;20057;-64
2023/01/17 08:48:55;;;;;;;13.10;7.63;;;;;;;15.22;54.31;95444.03;5050215;28;20133;-64
2023/01/17 08:51:25;;;;;;;13.02;6.70;;;;;;;15.00;55.61;95445.63;5050314;28;20056;-65
2023/01/17 08:53:52;;;;;;;12.27;6.03;;;;;;;14.94;55.97;95453.97;5050354;28;20229;-66
2023/01/17 08:56:20;;;;;;;10.77;5.82;;;;;;;14.89;56.08;95444.63;5050175;28;20053;-65
2023/01/17 08:58:47;;;;;;;12.30;6.28;;;;;;;14.70;56.31;95460.03;5050377;28;20052;-64
2023/01/17 09:01:16;;;;;;;10.30;5.75;;;;;;;14.40;57.40;95455.06;5050065;28;20092;-66
2023/01/17 09:03:44;;;;;;;16.80;8.18;;;;;;;14.08;58.92;95437.13;5050277;28;20192;-66
2023/01/17 09:06:13;;;;;;;11.23;6.25;;;;;;;13.90;59.75;95431.34;5050102;28;20057;-63
2023/01/17 09:08:45;;;;;;;13.85;6.15;;;;;;;13.63;61.21;95434.91;5049857;28;20223;-64
2023/01/17 09:11:15;;;;;;;15.45;6.35;;;;;;;13.61;61.58;95436.84;5049964;28;20045;-65
2023/01/17 09:13:43;;;;;;;10.93;6.13;;;;;;;13.60;62.25;95448.25;5049966;28;20102;-66
2023/01/17 09:16:11;;;;;;;12.55;6.25;;;;;;;13.54;62.05;95456.59;5049777;28;20059;-67
2023/01/17 09:18:39;;;;;;;9.18;5.55;;;;;;;13.55;62.27;95453.84;5049743;28;20053;-65
2023/01/17 09:21:11;;;;;;;9.55;4.88;;;;;;;13.49;62.76;95451.59;5049703;28;20055;-63
2023/01/17 09:23:38;;;;;;;15.15;5.13;;;;;;;13.42;62.87;95452.97;5049691;28;20045;-66
2023/01/17 09:26:06;;;;;;;14.27;5.32;;;;;;;13.48;62.40;95452.53;5049689;28;20105;-65
2023/01/17 09:28:39;;;;;;;13.32;7.15;;;;;;;13.47;61.93;95450.84;5049941;28;20507;-64
2023/01/17 09:31:08;;;;;;;9.88;5.53;;;;;;;13.48;62.36;95449.91;5049610;28;20094;-62
2023/01/17 09:33:36;;;;;;;8.98;4.55;;;;;;;13.49;62.08;95447.19;5049540;28;20053;-64
2023/01/17 09:36:06;;;;;;;9.00;4.47;;;;;;;13.47;62.23;95454.34;5049582;28;20132;-65
2023/01/17 09:38:34;;;;;;;15.27;8.13;;;;;;;13.47;62.52;95450.84;5049544;28;20093;-64
2023/01/17 09:41:03;;;;;;;9.63;5.75;;;;;;;13.39;62.77;95449.59;5049593;28;20059;-62
2023/01/17 09:43:39;;;;;;;13.88;4.25;;;;;;;13.33;61.32;95457.88;5049443;28;20083;-64
2023/01/17 09:46:12;;;;;;;12.43;4.72;;;;;;;13.11;62.95;95443.53;5049196;28;20503;-66
2023/01/17 09:48:41;;;;;;;11.88;5.07;;;;;;;13.01;63.60;95453.78;5049491;28;20044;-64
2023/01/17 09:51:16;;;;;;;20.45;7.82;;;;;;;13.01;63.19;95442.47;5051933;28;20049;-64
2023/01/17 09:53:43;;;;;;;10.98;4.63;;;;;;;13.00;63.68;95448.63;5052828;28;20076;-62
2023/01/17 09:56:14;;;;;;;18.50;7.15;;;;;;;13.04;63.69;95447.53;5052966;28;20468;-63
2023/01/17 09:58:51;;;;;;;21.73;6.60;;;;;;;13.11;63.70;95445.31;5052762;28;20057;-63
2023/01/17 10:01:25;;;;;;;12.13;5.15;;;;;;;13.13;63.42;95444.28;5052868;28;20555;-65
2023/01/17 10:04:14;;;;;;;11.85;5.82;;;;;;;13.14;63.71;95445.13;5052829;28;20045;-66
2023/01/17 10:07:01;;;;;;;17.17;7.60;;;;;;;13.07;63.27;95439.44;5052581;28;20491;-65
2023/01/17 10:09:48;;;;;;;14.35;7.90;;;;;;;12.89;64.19;95436.25;5052746;28;20052;-67
2023/01/17 10:12:25;;;;;;;12.70;5.50;;;;;;;12.81;64.78;95438.50;5052827;28;20086;-66
2023/01/17 10:15:05;;;;;;;10.57;4.35;;;;;;;12.74;65.05;95440.69;5052477;28;20128;-65
2023/01/17 10:17:45;;;;;;;9.35;4.57;;;;;;;12.72;65.05;95432.06;5052458;28;20052;-65
2023/01/17 10:20:32;;;;;;;13.83;4.97;;;;;;;12.63;64.77;95439.59;5052330;28;20469;-64
2023/01/17 10:23:20;;;;;;;9.13;5.35;;;;;;;12.58;65.15;95427.72;5052493;28;20286;-64
2023/01/17 10:25:49;;;;;;;9.90;5.22;;;;;;;12.63;65.24;95421.22;5052418;28;20045;-65
2023/01/17 10:28:18;;;;;;;8.55;4.75;;;;;;;12.57;63.56;95429.50;5052393;28;20106;-65
2023/01/17 10:30:49;;;;;;;21.02;7.93;;;;;;;12.44;65.47;95426.81;5052598;28;20056;-63
2023/01/17 10:33:19;;;;;;;13.15;5.03;;;;;;;12.56;64.45;95422.56;5052275;28;20049;-64
2023/01/17 10:35:56;;;;;;;18.35;7.18;;;;;;;12.55;64.40;95426.13;5052537;28;20060;-64
2023/01/17 10:38:30;;;;;;;18.42;7.90;;;;;;;12.60;63.96;95425.81;5052389;28;20136;-63
2023/01/17 10:41:02;;;;;;;21.60;9.90;;;;;;;12.61;63.46;95411.75;5052275;28;20049;-68
2023/01/17 10:43:40;;;;;;;9.75;4.53;;;;;;;12.67;61.98;95419.25;5052443;28;20049;-65
2023/01/17 10:46:15;;;;;;;7.57;3.85;;;;;;;12.64;62.44;95417.66;5051908;28;20060;-67
2023/01/17 10:48:45;;;;;;;14.73;4.07;;;;;;;12.68;61.12;95422.72;5052019;28;20105;-63
2023/01/17 10:51:58;;;;;;;13.82;4.80;;;;;;;12.77;61.48;95416.88;5052101;28;20053;-64
2023/01/17 10:54:50;;;;;;;9.82;4.57;;;;;;;12.72;61.07;95422.41;5010270;28;20042;-67
2023/01/17 10:57:21;;;;;;;8.30;4.35;;;;;;;12.59;60.42;95413.66;5050990;28;20059;-62
2023/01/17 10:59:50;;;;;;;10.93;4.13;;;;;;;12.55;60.82;95417.41;5052018;28;20140;-67
2023/01/17 11:02:23;;;;;;;10.48;4.35;;;;;;;12.53;60.78;95414.91;5051114;28;20053;-64
2023/01/17 11:04:54;;;;;;;9.57;4.40;;;;;;;12.54;60.60;95410.47;5051821;28;20064;-66
2023/01/17 11:07:24;;;;;;;7.35;4.47;;;;;;;12.44;60.88;95410.22;5051941;27;20402;-63
2023/01/17 11:09:55;;;;;;;12.05;5.40;;;;;;;12.45;62.93;95397.03;5051670;28;20045;-64
2023/01/17 11:12:30;;;;;;;9.07;3.90;;;;;;;12.54;60.91;95399.97;5051651;28;20101;-66
2023/01/17 11:15:02;;;;;;;7.40;3.42;;;;;;;12.54;61.54;95407.84;5051684;28;20469;-65
2023/01/17 11:17:31;;;;;;;16.38;4.03;;;;;;;12.56;62.06;95406.84;5051620;28;20546;-65
2023/01/17 11:20:18;;;;;;;12.30;4.10;;;;;;;12.55;61.48;95402.50;5051422;28;20053;-66
2023/01/17 11:23:01;;;;;;;10.35;3.85;;;;;;;12.60;61.31;95408.31;5051511;28;20048;-67
2023/01/17 11:25:33;;;;;;;8.50;3.95;;;;;;;12.58;60.41;95399.69;5051847;28;20045;-64
2023/01/17 11:28:04;;;;;;;13.15;4.63;;;;;;;12.68;61.37;95407.81;5051452;28;20045;-63
2023/01/17 11:30:34;;;;;;;10.52;3.90;;;;;;;12.61;60.30;95410.00;5051837;28;20049;-64
2023/01/17 11:33:04;;;;;;;7.20;3.58;;;;;;;12.54;61.44;95407.84;5051877;28;20418;-64
2023/01/17 11:35:32;;;;;;;;;;;;;;;12.54;62.63;95402.59;5051971;28;20076;-67
2023/01/17 11:38:07;;;;;;;11.82;4.45;;;;;;;12.48;62.58;95402.06;5051225;28;19924;-65
2023/01/17 11:40:40;;;;;;;14.23;6.70;;;;;;;12.49;62.34;95405.50;5051203;28;20053;-63
2023/01/17 11:43:25;;;;;;;22.20;8.25;;;;;;;12.37;62.80;95389.63;5051231;28;20053;-64
2023/01/17 11:46:06;;;;;;;17.23;6.32;;;;;;;12.33;63.03;95388.16;5051135;28;20049;-65
2023/01/17 11:48:36;;;;;;;9.77;4.80;;;;;;;12.34;62.90;95389.81;5051388;28;20056;-67
2023/01/17 11:51:19;;;;;;;10.88;4.93;;;;;;;12.35;61.86;95399.41;5051409;28;20085;-66
2023/01/17 11:53:48;;;;;;;11.73;7.38;;;;;;;12.40;62.34;95399.06;5050987;28;20049;-66
2023/01/17 11:56:35;;;;;;;14.95;7.90;;;;;;;12.42;62.68;95398.97;5050989;28;20056;-67
2023/01/17 11:59:23;;;;;;;9.20;3.90;;;;;;;12.22;61.98;95393.25;5050682;28;20095;-64
2023/01/17 12:02:04;;;;;;;22.45;11.18;;;;;;;12.20;63.68;95402.97;5050825;28;20045;-66
2023/01/17 12:04:38;;;;;;;33.97;14.75;;;;;;;12.21;63.88;95405.50;5050791;28;20133;-63
2023/01/17 12:07:17;;;;;;;39.13;17.63;;;;;;;12.26;64.06;95403.41;5051002;28;20132;-63
2023/01/17 12:09:53;;;;;;;35.80;13.13;;;;;;;12.30;64.61;95411.09;5050918;28;20053;-67
2023/01/17 12:15:33;;;;;;;12.45;5.97;;;;;;;12.37;63.39;95415.84;5024202;28;20525;-65
2023/01/17 12:18:29;;;;;;;10.00;5.72;;;;;;;12.35;63.59;95409.88;5050640;28;20487;-66
2023/01/17 12:21:10;;;;;;;15.07;5.95;;;;;;;12.41;62.64;95405.19;5050533;28;20056;-65
2023/01/17 12:24:00;;;;;;;10.55;5.60;;;;;;;12.44;63.01;95395.34;5050664;28;20056;-64
2023/01/17 12:26:37;;;;;;;14.50;5.43;;;;;;;12.46;62.06;95395.25;5050518;28;20053;-64
2023/01/17 12:29:38;;;;;;;11.73;4.90;;;;;;;12.43;62.32;95383.16;5050434;28;20128;-64
2023/01/17 12:32:40;;;;;;;6.97;4.50;;;;;;;12.38;63.76;95387.88;5050519;28;20085;-62
2023/01/17 12:35:15;;;;;;;9.82;6.18;;;;;;;12.38;64.75;95382.63;5050546;28;20477;-66
2023/01/17 12:37:45;;;;;;;11.30;4.93;;;;;;;12.42;64.38;95380.63;5050480;28;20041;-67
2023/01/17 12:40:22;;;;;;;21.38;9.73;;;;;;;12.44;62.69;95384.84;5050473;28;20049;-64
2023/01/17 12:42:55;;;;;;;12.68;7.10;;;;;;;12.47;63.26;95379.41;5050410;28;20041;-64
2023/01/17 12:45:30;;;;;;;9.85;5.18;;;;;;;12.46;63.51;95375.09;5050173;28;20057;-67
2023/01/17 12:48:02;;;;;;;9.55;5.10;;;;;;;12.48;62.90;95381.09;5050186;28;20088;-65
2023/01/17 12:50:36;;;;;;;12.75;4.50;;;;;;;12.49;64.06;95380.13;5050317;28;20045;-65
2023/01/17 12:53:14;;;;;;;11.18;4.57;;;;;;;12.48;63.89;95369.75;5050450;28;20053;-64
2023/01/17 12:55:50;;;;;;;8.25;4.70;;;;;;;12.47;63.87;95365.44;5050143;28;20394;-67
2023/01/17 12:58:21;;;;;;;14.02;4.80;;;;;;;12.47;64.51;95378.56;5050113;28;20075;-63
2023/01/17 13:00:59;;;;;;;9.85;5.30;;;;;;;12.47;64.71;95370.69;5049930;28;20045;-66
2023/01/17 13:03:37;;;;;;;11.55;5.97;;;;;;;12.44;64.43;95374.38;5050044;28;20136;-66
2023/01/17 13:06:08;;;;;;;13.70;6.63;;;;;;;12.46;64.91;95382.97;5050038;28;20057;-66
2023/01/17 13:08:45;;;;;;;17.90;8.18;;;;;;;12.46;65.05;95376.88;5050188;28;20045;-68
2023/01/17 13:11:17;;;;;;;16.48;8.05;;;;;;;12.46;65.36;95375.09;5050315;28;20094;-65
2023/01/17 13:13:46;;;;;;;13.98;7.53;;;;;;;12.45;65.63;95373.41;5050018;28;20124;-67